sensor_id;sensor_type;location;lat;lon;timestamp;P1;durP1;ratioP1;P2;durP2;ratioP2
12760;SDS011;6444;49.742;6.114;2023-06-22T00:01:56;17.98;;;14.00;;
12760;SDS011;6444;49.742;6.114;2023-06-22T00:04:23;15.63;;;13.98;;
12760;SDS011;6444;49.742;6.114;2023-06-22T00:06:49;17.40;;;15.52;;
12760;SDS011;6444;49.742;6.114;2023-06-22T00:09:16;25.10;;;22.50;;
12760;SDS011;6444;49.742;6.114;2023-06-22T00:11:43;21.30;;;18.37;;
12760;SDS011;6444;49.742;6.114;2023-06-22T00:14:09;20.15;;;16.98;;
12760;SDS011;6444;49.742;6.114;2023-06-22T00:16:36;21.02;;;17.58;;
12760;SDS011;6444;49.742;6.114;2023-06-22T00:19:03;21.17;;;18.70;;
12760;SDS011;6444;49.742;6.114;2023-06-22T00:21:29;22.80;;;19.73;;
12760;SDS011;6444;49.742;6.114;2023-06-22T00:23:56;24.05;;;20.08;;
12760;SDS011;6444;49.742;6.114;2023-06-22T00:26:23;27.48;;;20.85;;
12760;SDS011;6444;49.742;6.114;2023-06-22T00:28:49;23.62;;;20.83;;
12760;SDS011;6444;49.742;6.114;2023-06-22T00:31:16;26.02;;;21.85;;
12760;SDS011;6444;49.742;6.114;2023-06-22T00:33:42;22.73;;;20.10;;
12760;SDS011;6444;49.742;6.114;2023-06-22T00:36:09;24.58;;;20.27;;
12760;SDS011;6444;49.742;6.114;2023-06-22T00:38:36;24.15;;;20.35;;
12760;SDS011;6444;49.742;6.114;2023-06-22T00:41:02;23.20;;;20.73;;
12760;SDS011;6444;49.742;6.114;2023-06-22T00:43:29;23.20;;;20.70;;
12760;SDS011;6444;49.742;6.114;2023-06-22T00:45:56;25.33;;;21.27;;
12760;SDS011;6444;49.742;6.114;2023-06-22T00:48:22;27.42;;;22.33;;
12760;SDS011;6444;49.742;6.114;2023-06-22T00:50:49;27.33;;;23.90;;
12760;SDS011;6444;49.742;6.114;2023-06-22T00:53:15;28.60;;;24.02;;
12760;SDS011;6444;49.742;6.114;2023-06-22T00:55:43;26.70;;;23.25;;
12760;SDS011;6444;49.742;6.114;2023-06-22T00:58:09;29.60;;;25.42;;
12760;SDS011;6444;49.742;6.114;2023-06-22T01:00:37;30.88;;;24.73;;
12760;SDS011;6444;49.742;6.114;2023-06-22T01:03:03;29.37;;;24.60;;
12760;SDS011;6444;49.742;6.114;2023-06-22T01:05:29;33.95;;;26.87;;
12760;SDS011;6444;49.742;6.114;2023-06-22T01:10:38;40.78;;;28.75;;
12760;SDS011;6444;49.742;6.114;2023-06-22T01:13:10;35.10;;;29.25;;
12760;SDS011;6444;49.742;6.114;2023-06-22T01:15:38;37.17;;;29.65;;
12760;SDS011;6444;49.742;6.114;2023-06-22T01:18:04;39.30;;;31.60;;
12760;SDS011;6444;49.742;6.114;2023-06-22T01:20:30;39.63;;;31.42;;
12760;SDS011;6444;49.742;6.114;2023-06-22T01:25:45;38.72;;;32.30;;
12760;SDS011;6444;49.742;6.114;2023-06-22T01:28:23;42.83;;;32.50;;
12760;SDS011;6444;49.742;6.114;2023-06-22T01:30:46;40.53;;;31.45;;
12760;SDS011;6444;49.742;6.114;2023-06-22T01:33:13;39.30;;;31.70;;
12760;SDS011;6444;49.742;6.114;2023-06-22T01:35:39;41.75;;;32.42;;
12760;SDS011;6444;49.742;6.114;2023-06-22T01:38:06;46.75;;;35.38;;
12760;SDS011;6444;49.742;6.114;2023-06-22T01:40:33;47.22;;;35.97;;
12760;SDS011;6444;49.742;6.114;2023-06-22T01:43:00;46.63;;;35.33;;
12760;SDS011;6444;49.742;6.114;2023-06-22T01:45:26;46.50;;;34.67;;
12760;SDS011;6444;49.742;6.114;2023-06-22T01:47:52;43.83;;;33.60;;
12760;SDS011;6444;49.742;6.114;2023-06-22T01:50:19;47.72;;;35.40;;
12760;SDS011;6444;49.742;6.114;2023-06-22T01:52:46;49.22;;;36.40;;
12760;SDS011;6444;49.742;6.114;2023-06-22T01:55:12;48.60;;;38.13;;
12760;SDS011;6444;49.742;6.114;2023-06-22T01:57:39;51.72;;;38.08;;
12760;SDS011;6444;49.742;6.114;2023-06-22T02:00:07;53.25;;;38.38;;
12760;SDS011;6444;49.742;6.114;2023-06-22T02:02:36;54.65;;;39.35;;
12760;SDS011;6444;49.742;6.114;2023-06-22T02:05:05;52.58;;;39.50;;
12760;SDS011;6444;49.742;6.114;2023-06-22T02:07:28;52.55;;;39.55;;
12760;SDS011;6444;49.742;6.114;2023-06-22T02:09:53;50.28;;;39.05;;
12760;SDS011;6444;49.742;6.114;2023-06-22T02:12:21;53.33;;;40.05;;
12760;SDS011;6444;49.742;6.114;2023-06-22T02:14:46;55.45;;;39.65;;
12760;SDS011;6444;49.742;6.114;2023-06-22T02:17:13;53.47;;;40.10;;
12760;SDS011;6444;49.742;6.114;2023-06-22T02:19:42;55.53;;;39.00;;
12760;SDS011;6444;49.742;6.114;2023-06-22T02:22:09;52.38;;;37.28;;
12760;SDS011;6444;49.742;6.114;2023-06-22T02:24:35;57.42;;;39.10;;
12760;SDS011;6444;49.742;6.114;2023-06-22T02:27:02;53.30;;;37.50;;
12760;SDS011;6444;49.742;6.114;2023-06-22T02:29:29;59.03;;;39.72;;
12760;SDS011;6444;49.742;6.114;2023-06-22T02:31:55;58.00;;;41.13;;
12760;SDS011;6444;49.742;6.114;2023-06-22T02:34:22;57.67;;;41.88;;
12760;SDS011;6444;49.742;6.114;2023-06-22T02:36:49;56.63;;;40.22;;
12760;SDS011;6444;49.742;6.114;2023-06-22T02:39:19;60.17;;;42.47;;
12760;SDS011;6444;49.742;6.114;2023-06-22T02:41:45;61.63;;;42.00;;
12760;SDS011;6444;49.742;6.114;2023-06-22T02:44:11;59.22;;;42.95;;
12760;SDS011;6444;49.742;6.114;2023-06-22T02:46:38;66.28;;;43.50;;
12760;SDS011;6444;49.742;6.114;2023-06-22T02:49:05;62.53;;;42.85;;
12760;SDS011;6444;49.742;6.114;2023-06-22T02:51:33;58.80;;;41.17;;
12760;SDS011;6444;49.742;6.114;2023-06-22T02:53:58;61.35;;;43.38;;
12760;SDS011;6444;49.742;6.114;2023-06-22T02:56:24;63.33;;;42.20;;
12760;SDS011;6444;49.742;6.114;2023-06-22T02:58:52;61.67;;;41.97;;
12760;SDS011;6444;49.742;6.114;2023-06-22T03:01:18;64.68;;;42.97;;
12760;SDS011;6444;49.742;6.114;2023-06-22T03:03:48;60.97;;;42.90;;
12760;SDS011;6444;49.742;6.114;2023-06-22T03:06:14;61.00;;;42.38;;
12760;SDS011;6444;49.742;6.114;2023-06-22T03:08:41;64.82;;;42.85;;
12760;SDS011;6444;49.742;6.114;2023-06-22T03:11:08;60.78;;;41.97;;
12760;SDS011;6444;49.742;6.114;2023-06-22T03:13:34;64.72;;;42.45;;
12760;SDS011;6444;49.742;6.114;2023-06-22T03:16:02;65.37;;;41.90;;
12760;SDS011;6444;49.742;6.114;2023-06-22T03:18:28;61.03;;;41.60;;
12760;SDS011;6444;49.742;6.114;2023-06-22T03:20:55;67.28;;;42.20;;
12760;SDS011;6444;49.742;6.114;2023-06-22T03:23:22;58.72;;;41.42;;
12760;SDS011;6444;49.742;6.114;2023-06-22T03:25:48;60.30;;;42.65;;
12760;SDS011;6444;49.742;6.114;2023-06-22T03:28:15;59.50;;;40.50;;
12760;SDS011;6444;49.742;6.114;2023-06-22T03:30:42;59.30;;;42.58;;
12760;SDS011;6444;49.742;6.114;2023-06-22T03:33:09;64.43;;;43.05;;
12760;SDS011;6444;49.742;6.114;2023-06-22T03:35:36;66.03;;;42.10;;
12760;SDS011;6444;49.742;6.114;2023-06-22T03:38:02;57.13;;;40.35;;
12760;SDS011;6444;49.742;6.114;2023-06-22T03:40:29;57.78;;;40.38;;
12760;SDS011;6444;49.742;6.114;2023-06-22T03:42:55;57.80;;;40.60;;
12760;SDS011;6444;49.742;6.114;2023-06-22T03:45:23;65.60;;;41.17;;
12760;SDS011;6444;49.742;6.114;2023-06-22T03:47:49;63.90;;;40.78;;
12760;SDS011;6444;49.742;6.114;2023-06-22T03:50:16;57.25;;;40.67;;
12760;SDS011;6444;49.742;6.114;2023-06-22T03:52:43;58.03;;;40.33;;
12760;SDS011;6444;49.742;6.114;2023-06-22T03:55:09;58.30;;;40.12;;
12760;SDS011;6444;49.742;6.114;2023-06-22T03:57:36;63.47;;;41.83;;
12760;SDS011;6444;49.742;6.114;2023-06-22T04:00:03;55.40;;;39.33;;
12760;SDS011;6444;49.742;6.114;2023-06-22T04:02:30;60.00;;;39.10;;
12760;SDS011;6444;49.742;6.114;2023-06-22T04:04:57;59.40;;;39.35;;
12760;SDS011;6444;49.742;6.114;2023-06-22T04:07:23;51.37;;;35.92;;
12760;SDS011;6444;49.742;6.114;2023-06-22T04:09:50;53.05;;;37.95;;
12760;SDS011;6444;49.742;6.114;2023-06-22T04:12:17;49.30;;;36.15;;
12760;SDS011;6444;49.742;6.114;2023-06-22T04:14:43;53.00;;;37.90;;
12760;SDS011;6444;49.742;6.114;2023-06-22T04:17:10;55.40;;;45.23;;
12760;SDS011;6444;49.742;6.114;2023-06-22T04:19:37;55.05;;;39.00;;
12760;SDS011;6444;49.742;6.114;2023-06-22T04:22:04;52.88;;;36.53;;
12760;SDS011;6444;49.742;6.114;2023-06-22T04:24:31;46.97;;;36.20;;
12760;SDS011;6444;49.742;6.114;2023-06-22T04:26:57;45.47;;;35.13;;
12760;SDS011;6444;49.742;6.114;2023-06-22T04:29:24;46.92;;;33.78;;
12760;SDS011;6444;49.742;6.114;2023-06-22T04:31:50;41.05;;;32.80;;
12760;SDS011;6444;49.742;6.114;2023-06-22T04:34:17;43.47;;;32.70;;
12760;SDS011;6444;49.742;6.114;2023-06-22T04:36:44;37.45;;;29.85;;
12760;SDS011;6444;49.742;6.114;2023-06-22T04:39:10;33.55;;;27.30;;
12760;SDS011;6444;49.742;6.114;2023-06-22T04:41:37;35.30;;;28.45;;
12760;SDS011;6444;49.742;6.114;2023-06-22T04:46:39;27.35;;;24.27;;
12760;SDS011;6444;49.742;6.114;2023-06-22T04:49:06;27.67;;;24.77;;
12760;SDS011;6444;49.742;6.114;2023-06-22T04:51:40;27.87;;;24.40;;
12760;SDS011;6444;49.742;6.114;2023-06-22T04:54:07;26.17;;;22.85;;
12760;SDS011;6444;49.742;6.114;2023-06-22T04:56:33;22.57;;;20.30;;
12760;SDS011;6444;49.742;6.114;2023-06-22T04:59:00;18.23;;;16.42;;
12760;SDS011;6444;49.742;6.114;2023-06-22T05:01:27;18.02;;;16.12;;
12760;SDS011;6444;49.742;6.114;2023-06-22T05:03:53;16.35;;;14.70;;
12760;SDS011;6444;49.742;6.114;2023-06-22T05:06:20;16.02;;;14.07;;
12760;SDS011;6444;49.742;6.114;2023-06-22T05:08:50;16.40;;;14.40;;
12760;SDS011;6444;49.742;6.114;2023-06-22T05:11:25;18.83;;;15.32;;
12760;SDS011;6444;49.742;6.114;2023-06-22T05:13:51;16.23;;;14.52;;
12760;SDS011;6444;49.742;6.114;2023-06-22T05:16:18;16.62;;;14.35;;
12760;SDS011;6444;49.742;6.114;2023-06-22T05:18:45;17.00;;;14.18;;
12760;SDS011;6444;49.742;6.114;2023-06-22T05:21:11;16.92;;;15.23;;
12760;SDS011;6444;49.742;6.114;2023-06-22T05:23:38;16.62;;;14.63;;
12760;SDS011;6444;49.742;6.114;2023-06-22T05:26:04;15.55;;;14.15;;
12760;SDS011;6444;49.742;6.114;2023-06-22T05:28:31;15.23;;;13.80;;
12760;SDS011;6444;49.742;6.114;2023-06-22T05:30:58;18.10;;;16.47;;
12760;SDS011;6444;49.742;6.114;2023-06-22T05:33:24;16.70;;;15.10;;
12760;SDS011;6444;49.742;6.114;2023-06-22T05:35:51;16.45;;;14.63;;
12760;SDS011;6444;49.742;6.114;2023-06-22T05:38:18;15.27;;;13.77;;
12760;SDS011;6444;49.742;6.114;2023-06-22T05:40:44;15.27;;;13.68;;
12760;SDS011;6444;49.742;6.114;2023-06-22T05:43:11;21.35;;;14.15;;
12760;SDS011;6444;49.742;6.114;2023-06-22T05:45:38;14.95;;;13.18;;
12760;SDS011;6444;49.742;6.114;2023-06-22T05:48:05;15.73;;;13.13;;
12760;SDS011;6444;49.742;6.114;2023-06-22T05:50:32;17.00;;;13.02;;
12760;SDS011;6444;49.742;6.114;2023-06-22T05:52:58;14.35;;;12.40;;
12760;SDS011;6444;49.742;6.114;2023-06-22T05:55:25;13.45;;;12.00;;
12760;SDS011;6444;49.742;6.114;2023-06-22T05:57:51;14.95;;;11.57;;
12760;SDS011;6444;49.742;6.114;2023-06-22T06:00:18;12.45;;;11.15;;
12760;SDS011;6444;49.742;6.114;2023-06-22T06:06:09;11.35;;;10.00;;
12760;SDS011;6444;49.742;6.114;2023-06-22T06:20:45;10.07;;;9.00;;
12760;SDS011;6444;49.742;6.114;2023-06-22T06:23:12;10.60;;;9.60;;
12760;SDS011;6444;49.742;6.114;2023-06-22T06:25:39;11.02;;;9.25;;
12760;SDS011;6444;49.742;6.114;2023-06-22T06:28:05;10.43;;;8.68;;
12760;SDS011;6444;49.742;6.114;2023-06-22T06:30:33;11.45;;;8.68;;
12760;SDS011;6444;49.742;6.114;2023-06-22T06:32:59;10.32;;;8.30;;
12760;SDS011;6444;49.742;6.114;2023-06-22T06:35:26;9.30;;;8.35;;
12760;SDS011;6444;49.742;6.114;2023-06-22T06:37:53;11.18;;;8.52;;
12760;SDS011;6444;49.742;6.114;2023-06-22T06:40:19;10.23;;;8.82;;
12760;SDS011;6444;49.742;6.114;2023-06-22T06:42:47;10.60;;;8.45;;
12760;SDS011;6444;49.742;6.114;2023-06-22T06:45:18;9.93;;;8.85;;
12760;SDS011;6444;49.742;6.114;2023-06-22T06:47:43;10.65;;;9.10;;
12760;SDS011;6444;49.742;6.114;2023-06-22T06:50:10;10.43;;;8.85;;
12760;SDS011;6444;49.742;6.114;2023-06-22T06:52:36;9.63;;;8.63;;
12760;SDS011;6444;49.742;6.114;2023-06-22T06:55:03;10.38;;;9.38;;
12760;SDS011;6444;49.742;6.114;2023-06-22T06:57:33;8.25;;;7.65;;
12760;SDS011;6444;49.742;6.114;2023-06-22T07:00:00;7.90;;;7.18;;
12760;SDS011;6444;49.742;6.114;2023-06-22T07:02:26;7.55;;;6.85;;
12760;SDS011;6444;49.742;6.114;2023-06-22T07:04:55;8.23;;;7.53;;
12760;SDS011;6444;49.742;6.114;2023-06-22T07:07:23;7.97;;;7.28;;
12760;SDS011;6444;49.742;6.114;2023-06-22T07:09:49;8.30;;;7.05;;
12760;SDS011;6444;49.742;6.114;2023-06-22T07:12:16;8.07;;;7.28;;
12760;SDS011;6444;49.742;6.114;2023-06-22T07:14:43;9.48;;;8.68;;
12760;SDS011;6444;49.742;6.114;2023-06-22T07:17:09;8.23;;;7.40;;
12760;SDS011;6444;49.742;6.114;2023-06-22T07:19:37;8.18;;;7.45;;
12760;SDS011;6444;49.742;6.114;2023-06-22T07:22:03;9.77;;;7.65;;
12760;SDS011;6444;49.742;6.114;2023-06-22T07:24:30;8.15;;;7.45;;
12760;SDS011;6444;49.742;6.114;2023-06-22T07:26:57;8.07;;;7.28;;
12760;SDS011;6444;49.742;6.114;2023-06-22T07:29:23;8.23;;;7.47;;
12760;SDS011;6444;49.742;6.114;2023-06-22T07:31:50;9.75;;;8.52;;
12760;SDS011;6444;49.742;6.114;2023-06-22T07:34:17;8.75;;;7.95;;
12760;SDS011;6444;49.742;6.114;2023-06-22T07:36:44;8.80;;;7.95;;
12760;SDS011;6444;49.742;6.114;2023-06-22T07:39:10;10.52;;;8.65;;
12760;SDS011;6444;49.742;6.114;2023-06-22T07:41:36;11.27;;;9.60;;
12760;SDS011;6444;49.742;6.114;2023-06-22T07:44:03;9.80;;;8.98;;
12760;SDS011;6444;49.742;6.114;2023-06-22T07:46:30;9.98;;;8.70;;
12760;SDS011;6444;49.742;6.114;2023-06-22T07:48:57;9.98;;;8.88;;
12760;SDS011;6444;49.742;6.114;2023-06-22T07:51:24;10.00;;;9.00;;
12760;SDS011;6444;49.742;6.114;2023-06-22T07:53:52;11.15;;;10.05;;
12760;SDS011;6444;49.742;6.114;2023-06-22T07:56:19;13.23;;;9.93;;
12760;SDS011;6444;49.742;6.114;2023-06-22T07:58:46;10.48;;;9.48;;
12760;SDS011;6444;49.742;6.114;2023-06-22T08:01:13;11.15;;;10.05;;
12760;SDS011;6444;49.742;6.114;2023-06-22T08:03:39;10.93;;;9.82;;
12760;SDS011;6444;49.742;6.114;2023-06-22T08:06:06;11.00;;;9.85;;
12760;SDS011;6444;49.742;6.114;2023-06-22T08:08:32;11.12;;;10.02;;
12760;SDS011;6444;49.742;6.114;2023-06-22T08:10:59;10.80;;;9.77;;
12760;SDS011;6444;49.742;6.114;2023-06-22T08:13:25;10.93;;;9.82;;
12760;SDS011;6444;49.742;6.114;2023-06-22T08:15:52;12.07;;;10.18;;
12760;SDS011;6444;49.742;6.114;2023-06-22T08:18:19;10.82;;;9.80;;
12760;SDS011;6444;49.742;6.114;2023-06-22T08:20:46;11.70;;;10.52;;
12760;SDS011;6444;49.742;6.114;2023-06-22T08:23:13;11.60;;;10.43;;
12760;SDS011;6444;49.742;6.114;2023-06-22T08:25:39;10.93;;;9.93;;
12760;SDS011;6444;49.742;6.114;2023-06-22T08:28:06;11.10;;;10.00;;
12760;SDS011;6444;49.742;6.114;2023-06-22T08:30:32;11.15;;;10.15;;
12760;SDS011;6444;49.742;6.114;2023-06-22T08:32:59;11.38;;;10.30;;
12760;SDS011;6444;49.742;6.114;2023-06-22T08:35:26;13.93;;;12.70;;
12760;SDS011;6444;49.742;6.114;2023-06-22T08:37:52;11.60;;;10.43;;
12760;SDS011;6444;49.742;6.114;2023-06-22T08:40:19;11.95;;;10.70;;
12760;SDS011;6444;49.742;6.114;2023-06-22T08:42:46;13.38;;;11.63;;
12760;SDS011;6444;49.742;6.114;2023-06-22T08:45:12;20.77;;;13.93;;
12760;SDS011;6444;49.742;6.114;2023-06-22T08:47:39;18.02;;;15.20;;
12760;SDS011;6444;49.742;6.114;2023-06-22T08:50:06;21.23;;;14.90;;
12760;SDS011;6444;49.742;6.114;2023-06-22T08:52:32;22.58;;;16.60;;
12760;SDS011;6444;49.742;6.114;2023-06-22T08:54:59;25.60;;;23.00;;
12760;SDS011;6444;49.742;6.114;2023-06-22T08:57:26;25.88;;;20.33;;
12760;SDS011;6444;49.742;6.114;2023-06-22T08:59:52;28.35;;;21.50;;
12760;SDS011;6444;49.742;6.114;2023-06-22T09:02:19;31.95;;;23.20;;
12760;SDS011;6444;49.742;6.114;2023-06-22T09:04:46;25.55;;;22.73;;
12760;SDS011;6444;49.742;6.114;2023-06-22T09:07:12;26.35;;;23.55;;
12760;SDS011;6444;49.742;6.114;2023-06-22T09:09:39;25.15;;;22.55;;
12760;SDS011;6444;49.742;6.114;2023-06-22T09:12:06;27.00;;;24.02;;
12760;SDS011;6444;49.742;6.114;2023-06-22T09:14:33;24.73;;;22.08;;
12760;SDS011;6444;49.742;6.114;2023-06-22T09:17:00;24.85;;;22.25;;
12760;SDS011;6444;49.742;6.114;2023-06-22T09:19:26;24.12;;;21.67;;
12760;SDS011;6444;49.742;6.114;2023-06-22T09:21:53;36.50;;;32.85;;
12760;SDS011;6444;49.742;6.114;2023-06-22T09:24:19;29.63;;;26.62;;
12760;SDS011;6444;49.742;6.114;2023-06-22T09:26:47;30.67;;;27.48;;
12760;SDS011;6444;49.742;6.114;2023-06-22T09:29:14;30.67;;;27.08;;
12760;SDS011;6444;49.742;6.114;2023-06-22T09:31:40;36.95;;;33.10;;
12760;SDS011;6444;49.742;6.114;2023-06-22T09:34:07;32.75;;;27.55;;
12760;SDS011;6444;49.742;6.114;2023-06-22T09:36:33;28.92;;;25.92;;
12760;SDS011;6444;49.742;6.114;2023-06-22T09:39:00;30.37;;;26.17;;
12760;SDS011;6444;49.742;6.114;2023-06-22T09:41:27;27.02;;;24.05;;
12760;SDS011;6444;49.742;6.114;2023-06-22T09:43:53;25.90;;;23.40;;
12760;SDS011;6444;49.742;6.114;2023-06-22T09:46:20;24.92;;;22.27;;
12760;SDS011;6444;49.742;6.114;2023-06-22T09:48:47;24.55;;;22.05;;
12760;SDS011;6444;49.742;6.114;2023-06-22T09:51:14;28.80;;;24.52;;
12760;SDS011;6444;49.742;6.114;2023-06-22T09:53:41;23.45;;;21.12;;
12760;SDS011;6444;49.742;6.114;2023-06-22T09:56:07;25.15;;;22.58;;
12760;SDS011;6444;49.742;6.114;2023-06-22T09:58:34;18.35;;;16.50;;
12760;SDS011;6444;49.742;6.114;2023-06-22T10:01:01;16.65;;;14.95;;
12760;SDS011;6444;49.742;6.114;2023-06-22T10:03:27;14.80;;;13.35;;
12760;SDS011;6444;49.742;6.114;2023-06-22T10:05:54;13.62;;;12.20;;
12760;SDS011;6444;49.742;6.114;2023-06-22T10:08:20;15.18;;;13.73;;
12760;SDS011;6444;49.742;6.114;2023-06-22T10:10:47;13.15;;;11.85;;
12760;SDS011;6444;49.742;6.114;2023-06-22T10:13:14;12.13;;;10.90;;
12760;SDS011;6444;49.742;6.114;2023-06-22T10:15:41;12.27;;;11.12;;
12760;SDS011;6444;49.742;6.114;2023-06-22T10:18:07;11.68;;;10.48;;
12760;SDS011;6444;49.742;6.114;2023-06-22T10:20:34;11.88;;;10.77;;
12760;SDS011;6444;49.742;6.114;2023-06-22T10:23:00;10.60;;;9.70;;
12760;SDS011;6444;49.742;6.114;2023-06-22T10:25:27;11.00;;;10.00;;
12760;SDS011;6444;49.742;6.114;2023-06-22T10:27:53;10.18;;;9.38;;
12760;SDS011;6444;49.742;6.114;2023-06-22T10:30:20;12.07;;;10.98;;
12760;SDS011;6444;49.742;6.114;2023-06-22T10:32:47;12.35;;;10.82;;
12760;SDS011;6444;49.742;6.114;2023-06-22T10:35:13;10.75;;;9.80;;
12760;SDS011;6444;49.742;6.114;2023-06-22T10:37:40;10.55;;;9.63;;
12760;SDS011;6444;49.742;6.114;2023-06-22T10:40:07;11.52;;;10.52;;
12760;SDS011;6444;49.742;6.114;2023-06-22T10:42:33;10.77;;;9.70;;
12760;SDS011;6444;49.742;6.114;2023-06-22T10:45:00;11.20;;;10.10;;
12760;SDS011;6444;49.742;6.114;2023-06-22T10:47:27;11.95;;;10.85;;
12760;SDS011;6444;49.742;6.114;2023-06-22T10:49:53;11.35;;;10.40;;
12760;SDS011;6444;49.742;6.114;2023-06-22T10:52:20;11.02;;;9.90;;
12760;SDS011;6444;49.742;6.114;2023-06-22T10:54:47;12.40;;;11.12;;
12760;SDS011;6444;49.742;6.114;2023-06-22T10:57:13;14.85;;;13.38;;
12760;SDS011;6444;49.742;6.114;2023-06-22T10:59:40;13.20;;;12.00;;
12760;SDS011;6444;49.742;6.114;2023-06-22T11:02:06;10.52;;;9.57;;
12760;SDS011;6444;49.742;6.114;2023-06-22T11:04:33;10.38;;;9.48;;
12760;SDS011;6444;49.742;6.114;2023-06-22T11:07:00;11.05;;;10.05;;
12760;SDS011;6444;49.742;6.114;2023-06-22T11:09:26;9.85;;;8.85;;
12760;SDS011;6444;49.742;6.114;2023-06-22T11:11:53;10.27;;;9.38;;
12760;SDS011;6444;49.742;6.114;2023-06-22T11:14:20;10.00;;;9.02;;
12760;SDS011;6444;49.742;6.114;2023-06-22T11:16:46;9.38;;;8.65;;
12760;SDS011;6444;49.742;6.114;2023-06-22T11:19:14;8.98;;;8.15;;
12760;SDS011;6444;49.742;6.114;2023-06-22T11:21:40;10.30;;;8.73;;
12760;SDS011;6444;49.742;6.114;2023-06-22T11:24:07;8.95;;;8.13;;
12760;SDS011;6444;49.742;6.114;2023-06-22T11:26:34;8.43;;;7.62;;
12760;SDS011;6444;49.742;6.114;2023-06-22T11:29:00;9.68;;;8.75;;
12760;SDS011;6444;49.742;6.114;2023-06-22T11:31:27;10.07;;;9.10;;
12760;SDS011;6444;49.742;6.114;2023-06-22T11:33:54;9.52;;;8.73;;
12760;SDS011;6444;49.742;6.114;2023-06-22T11:36:21;9.25;;;8.20;;
12760;SDS011;6444;49.742;6.114;2023-06-22T11:38:47;9.40;;;8.18;;
12760;SDS011;6444;49.742;6.114;2023-06-22T11:41:14;9.05;;;8.15;;
12760;SDS011;6444;49.742;6.114;2023-06-22T11:43:41;8.35;;;7.50;;
12760;SDS011;6444;49.742;6.114;2023-06-22T11:46:07;9.35;;;8.55;;
12760;SDS011;6444;49.742;6.114;2023-06-22T11:48:35;9.88;;;8.95;;
12760;SDS011;6444;49.742;6.114;2023-06-22T11:51:01;9.68;;;8.73;;
12760;SDS011;6444;49.742;6.114;2023-06-22T11:53:28;10.27;;;9.27;;
12760;SDS011;6444;49.742;6.114;2023-06-22T11:55:55;10.13;;;9.13;;
12760;SDS011;6444;49.742;6.114;2023-06-22T11:58:21;10.07;;;9.18;;
12760;SDS011;6444;49.742;6.114;2023-06-22T12:00:49;9.07;;;8.25;;
12760;SDS011;6444;49.742;6.114;2023-06-22T12:03:15;10.38;;;9.32;;
12760;SDS011;6444;49.742;6.114;2023-06-22T12:05:42;10.85;;;8.82;;
12760;SDS011;6444;49.742;6.114;2023-06-22T12:08:09;9.88;;;8.98;;
12760;SDS011;6444;49.742;6.114;2023-06-22T12:10:35;10.68;;;9.15;;
12760;SDS011;6444;49.742;6.114;2023-06-22T12:13:02;9.50;;;8.60;;
12760;SDS011;6444;49.742;6.114;2023-06-22T12:15:29;10.43;;;9.45;;
12760;SDS011;6444;49.742;6.114;2023-06-22T12:17:55;8.82;;;8.07;;
12760;SDS011;6444;49.742;6.114;2023-06-22T12:20:22;8.25;;;7.50;;
12760;SDS011;6444;49.742;6.114;2023-06-22T12:22:48;9.15;;;8.27;;
12760;SDS011;6444;49.742;6.114;2023-06-22T12:25:15;9.00;;;8.15;;
12760;SDS011;6444;49.742;6.114;2023-06-22T12:27:42;10.10;;;9.00;;
12760;SDS011;6444;49.742;6.114;2023-06-22T12:30:08;9.02;;;7.75;;
12760;SDS011;6444;49.742;6.114;2023-06-22T12:32:35;11.10;;;8.20;;
12760;SDS011;6444;49.742;6.114;2023-06-22T12:35:02;8.70;;;7.53;;
12760;SDS011;6444;49.742;6.114;2023-06-22T12:37:28;9.38;;;8.15;;
12760;SDS011;6444;49.742;6.114;2023-06-22T12:39:55;9.75;;;8.65;;
12760;SDS011;6444;49.742;6.114;2023-06-22T12:42:21;10.07;;;9.05;;
12760;SDS011;6444;49.742;6.114;2023-06-22T12:44:48;11.75;;;8.88;;
12760;SDS011;6444;49.742;6.114;2023-06-22T12:47:15;10.23;;;8.60;;
12760;SDS011;6444;49.742;6.114;2023-06-22T12:49:41;8.98;;;8.05;;
12760;SDS011;6444;49.742;6.114;2023-06-22T12:52:09;10.45;;;7.90;;
12760;SDS011;6444;49.742;6.114;2023-06-22T12:54:35;9.30;;;8.23;;
12760;SDS011;6444;49.742;6.114;2023-06-22T12:57:02;9.55;;;8.55;;
12760;SDS011;6444;49.742;6.114;2023-06-22T12:59:29;11.60;;;9.45;;
12760;SDS011;6444;49.742;6.114;2023-06-22T13:01:55;10.68;;;9.18;;
12760;SDS011;6444;49.742;6.114;2023-06-22T13:04:22;10.88;;;9.77;;
12760;SDS011;6444;49.742;6.114;2023-06-22T13:06:49;11.95;;;9.38;;
12760;SDS011;6444;49.742;6.114;2023-06-22T13:09:15;10.70;;;9.60;;
12760;SDS011;6444;49.742;6.114;2023-06-22T13:11:42;15.27;;;11.57;;
12760;SDS011;6444;49.742;6.114;2023-06-22T13:14:08;14.05;;;11.85;;
12760;SDS011;6444;49.742;6.114;2023-06-22T13:16:36;15.75;;;12.32;;
12760;SDS011;6444;49.742;6.114;2023-06-22T13:19:02;15.88;;;12.80;;
12760;SDS011;6444;49.742;6.114;2023-06-22T13:21:30;16.60;;;13.52;;
12760;SDS011;6444;49.742;6.114;2023-06-22T13:23:56;15.95;;;13.45;;
12760;SDS011;6444;49.742;6.114;2023-06-22T13:26:22;17.33;;;14.13;;
12760;SDS011;6444;49.742;6.114;2023-06-22T13:28:49;17.75;;;14.52;;
12760;SDS011;6444;49.742;6.114;2023-06-22T13:31:16;11.10;;;9.60;;
12760;SDS011;6444;49.742;6.114;2023-06-22T13:33:42;12.27;;;9.27;;
12760;SDS011;6444;49.742;6.114;2023-06-22T13:36:10;12.05;;;9.45;;
12760;SDS011;6444;49.742;6.114;2023-06-22T13:38:36;15.02;;;10.65;;
12760;SDS011;6444;49.742;6.114;2023-06-22T13:41:03;12.43;;;11.12;;
12760;SDS011;6444;49.742;6.114;2023-06-22T13:43:30;17.50;;;12.65;;
12760;SDS011;6444;49.742;6.114;2023-06-22T13:45:56;13.30;;;11.80;;
12760;SDS011;6444;49.742;6.114;2023-06-22T13:48:23;15.82;;;12.73;;
12760;SDS011;6444;49.742;6.114;2023-06-22T13:50:50;17.85;;;12.73;;
12760;SDS011;6444;49.742;6.114;2023-06-22T13:53:17;14.63;;;12.80;;
12760;SDS011;6444;49.742;6.114;2023-06-22T13:55:43;12.50;;;11.12;;
12760;SDS011;6444;49.742;6.114;2023-06-22T13:58:10;12.07;;;10.30;;
12760;SDS011;6444;49.742;6.114;2023-06-22T14:00:37;13.57;;;10.95;;
12760;SDS011;6444;49.742;6.114;2023-06-22T14:03:03;10.25;;;9.25;;
12760;SDS011;6444;49.742;6.114;2023-06-22T14:05:30;12.45;;;9.35;;
12760;SDS011;6444;49.742;6.114;2023-06-22T14:07:57;9.02;;;8.13;;
12760;SDS011;6444;49.742;6.114;2023-06-22T14:10:24;13.02;;;8.80;;
12760;SDS011;6444;49.742;6.114;2023-06-22T14:12:51;14.57;;;8.60;;
12760;SDS011;6444;49.742;6.114;2023-06-22T14:15:17;9.90;;;7.68;;
12760;SDS011;6444;49.742;6.114;2023-06-22T14:17:44;11.07;;;7.15;;
12760;SDS011;6444;49.742;6.114;2023-06-22T14:20:11;9.63;;;6.18;;
12760;SDS011;6444;49.742;6.114;2023-06-22T14:22:37;8.20;;;5.00;;
12760;SDS011;6444;49.742;6.114;2023-06-22T14:25:04;10.88;;;5.10;;
12760;SDS011;6444;49.742;6.114;2023-06-22T14:27:31;4.80;;;4.07;;
12760;SDS011;6444;49.742;6.114;2023-06-22T14:29:57;6.25;;;4.03;;
12760;SDS011;6444;49.742;6.114;2023-06-22T14:32:24;6.70;;;4.68;;
12760;SDS011;6444;49.742;6.114;2023-06-22T14:34:51;6.18;;;4.15;;
12760;SDS011;6444;49.742;6.114;2023-06-22T14:37:17;6.12;;;3.62;;
12760;SDS011;6444;49.742;6.114;2023-06-22T14:39:44;5.62;;;2.85;;
12760;SDS011;6444;49.742;6.114;2023-06-22T14:42:10;3.80;;;3.00;;
12760;SDS011;6444;49.742;6.114;2023-06-22T14:44:37;4.68;;;2.83;;
12760;SDS011;6444;49.742;6.114;2023-06-22T14:47:04;4.37;;;2.72;;
12760;SDS011;6444;49.742;6.114;2023-06-22T14:49:30;2.70;;;2.35;;
12760;SDS011;6444;49.742;6.114;2023-06-22T14:51:57;4.47;;;2.40;;
12760;SDS011;6444;49.742;6.114;2023-06-22T14:54:24;4.90;;;2.58;;
12760;SDS011;6444;49.742;6.114;2023-06-22T14:56:50;5.32;;;3.25;;
12760;SDS011;6444;49.742;6.114;2023-06-22T14:59:17;4.85;;;2.42;;
12760;SDS011;6444;49.742;6.114;2023-06-22T15:01:43;2.75;;;2.10;;
12760;SDS011;6444;49.742;6.114;2023-06-22T15:04:10;4.85;;;2.10;;